Time;durP1;ratioP1;P1;durP2;ratioP2;P2;SDS_P1;SDS_P2;PMS_P1;PMS_P2;Temp;Humidity;BMP_temperature;BMP_pressure;BME280_temperature;BME280_humidity;BME280_pressure;Samples;Min_cycle;Max_cycle;Signal;HPM_P1;HPM_P2
2022/07/01 00:00:16;;;;;;;15.53;14.40;;;22.10;99.90;;;;;;5072908;28;20876;-59
2022/07/01 00:02:43;;;;;;;16.07;14.67;;;22.10;99.90;;;;;;5072788;28;20454;-59
2022/07/01 00:05:09;;;;;;;16.80;15.40;;;22.00;99.90;;;;;;5072697;28;20457;-59
2022/07/01 00:07:37;;;;;;;17.37;15.80;;;22.00;99.90;;;;;;5072624;28;20952;-60
2022/07/01 00:10:05;;;;;;;16.13;14.93;;;21.90;99.90;;;;;;5072860;28;20455;-59
2022/07/01 00:12:31;;;;;;;15.37;13.77;;;21.70;99.90;;;;;;5072802;28;20443;-59
2022/07/01 00:14:58;;;;;;;15.80;14.53;;;21.90;99.90;;;;;;5072773;28;20443;-59
2022/07/01 00:17:24;;;;;;;15.23;14.10;;;21.90;99.90;;;;;;5072665;28;20461;-59
2022/07/01 00:19:51;;;;;;;15.00;13.90;;;22.00;99.90;;;;;;5072458;28;20575;-59
2022/07/01 00:22:17;;;;;;;15.33;14.13;;;21.90;99.90;;;;;;5072807;28;20534;-59
2022/07/01 00:24:46;;;;;;;15.37;13.90;;;21.90;99.90;;;;;;5072528;28;21001;-59
2022/07/01 00:27:13;;;;;;;15.60;14.20;;;21.90;99.90;;;;;;5072891;28;20458;-59
2022/07/01 00:29:40;;;;;;;15.20;14.00;;;21.80;99.90;;;;;;5072565;28;20459;-59
2022/07/01 00:32:07;;;;;;;16.57;15.03;;;21.80;99.90;;;;;;5072696;28;20454;-59
2022/07/01 00:34:33;;;;;;;15.47;13.97;;;21.90;99.90;;;;;;5074034;28;20796;-59
2022/07/01 00:37:00;;;;;;;16.20;14.90;;;21.90;99.90;;;;;;5076414;28;20489;-59
2022/07/01 00:39:26;;;;;;;17.00;15.70;;;22.00;99.90;;;;;;5076272;28;20566;-59
2022/07/01 00:41:59;;;;;;;17.07;15.77;;;22.10;99.90;;;;;;5076263;28;20946;-59
2022/07/01 00:44:26;;;;;;;16.80;15.30;;;22.10;99.90;;;;;;5076195;28;20541;-59
2022/07/01 00:46:52;;;;;;;16.70;15.30;;;22.00;99.90;;;;;;5076165;28;20934;-59
2022/07/01 00:49:20;;;;;;;17.40;15.80;;;22.00;99.90;;;;;;5075962;28;20938;-59
2022/07/01 00:51:46;;;;;;;16.80;15.40;;;22.00;99.90;;;;;;5076136;28;20443;-59
2022/07/01 00:54:13;;;;;;;17.67;16.17;;;22.10;99.90;;;;;;5076018;28;20459;-59
2022/07/01 00:56:39;;;;;;;15.00;13.80;;;22.20;99.90;;;;;;5075910;28;20471;-59
2022/07/01 00:59:07;;;;;;;17.30;16.00;;;22.20;99.90;;;;;;5075791;28;20482;-59
2022/07/01 01:01:34;;;;;;;18.13;16.67;;;22.20;99.90;;;;;;5075641;28;20473;-59
2022/07/01 01:04:01;;;;;;;18.87;17.27;;;22.20;99.90;;;;;;5076203;28;20451;-59
2022/07/01 01:06:28;;;;;;;17.33;15.87;;;22.30;99.90;;;;;;5076074;28;20455;-59
2022/07/01 01:08:55;;;;;;;18.43;16.73;;;22.40;99.90;;;;;;5075789;28;20447;-59
2022/07/01 01:11:22;;;;;;;17.93;16.23;;;22.40;99.90;;;;;;5075625;28;20892;-59
2022/07/01 01:13:48;;;;;;;18.90;17.20;;;22.30;99.90;;;;;;5075576;28;20813;-59
2022/07/01 01:16:21;;;;;;;18.47;16.60;;;22.00;99.90;;;;;;5075464;28;20942;-59
2022/07/01 01:18:47;;;;;;;17.13;15.70;;;22.00;99.90;;;;;;5075551;28;20558;-59
2022/07/01 01:21:16;;;;;;;18.53;16.87;;;22.00;99.90;;;;;;5075551;28;20447;-59
2022/07/01 01:23:43;;;;;;;16.97;15.60;;;22.00;99.90;;;;;;5075473;28;20559;-59
2022/07/01 01:26:17;;;;;;;19.07;17.67;;;21.90;99.90;;;;;;5075455;28;20821;-59
2022/07/01 01:28:44;;;;;;;19.33;17.73;;;21.80;99.90;;;;;;5075290;28;20458;-59
2022/07/01 01:31:11;;;;;;;18.73;17.20;;;21.90;99.90;;;;;;5075425;28;20444;-59
2022/07/01 01:33:37;;;;;;;19.63;17.90;;;21.90;99.90;;;;;;5075437;28;20443;-59
2022/07/01 01:36:05;;;;;;;18.80;17.10;;;21.70;99.90;;;;;;5075248;28;20470;-59
2022/07/01 01:38:34;;;;;;;18.60;16.90;;;21.60;99.90;;;;;;5075118;28;20479;-59
2022/07/01 01:41:01;;;;;;;20.33;18.37;;;21.70;99.90;;;;;;5075062;28;20451;-59
2022/07/01 01:43:27;;;;;;;20.00;18.20;;;21.70;99.90;;;;;;5075258;28;20483;-59
2022/07/01 01:45:54;;;;;;;18.87;17.27;;;21.70;99.90;;;;;;5075008;28;20538;-59
2022/07/01 01:48:20;;;;;;;19.47;17.77;;;21.70;99.90;;;;;;5074893;28;21037;-59
2022/07/01 01:50:47;;;;;;;20.43;18.80;;;21.70;99.90;;;;;;5074954;28;20543;-59
2022/07/01 01:53:13;;;;;;;21.20;19.40;;;21.70;99.90;;;;;;5074860;28;20454;-59
2022/07/01 01:55:41;;;;;;;19.80;18.10;;;21.50;99.90;;;;;;5074767;28;20448;-59
2022/07/01 01:58:08;;;;;;;20.40;18.67;;;21.50;99.90;;;;;;5075017;28;20486;-59
2022/07/01 02:00:34;;;;;;;22.80;20.87;;;21.50;99.90;;;;;;5074899;28;20870;-59
2022/07/01 02:03:01;;;;;;;21.40;19.60;;;21.20;99.90;;;;;;5074799;28;20879;-59
2022/07/01 02:05:27;;;;;;;21.80;19.60;;;21.10;99.90;;;;;;5075113;28;20534;-59
2022/07/01 02:07:54;;;;;;;23.60;21.63;;;21.00;99.90;;;;;;5074637;28;20818;-59
2022/07/01 02:10:20;;;;;;;22.23;20.30;;;21.00;99.90;;;;;;5074456;28;20517;-59
2022/07/01 02:12:48;;;;;;;22.60;20.70;;;20.70;99.90;;;;;;5074629;28;20885;-59
2022/07/01 02:15:14;;;;;;;26.10;23.50;;;20.70;99.90;;;;;;5074541;28;20779;-59
2022/07/01 02:17:41;;;;;;;26.13;23.73;;;20.60;99.90;;;;;;5074483;28;20444;-60
2022/07/01 02:20:09;;;;;;;25.80;23.50;;;20.60;99.90;;;;;;5074317;28;20479;-59
2022/07/01 02:22:36;;;;;;;24.20;22.10;;;20.50;99.90;;;;;;5074283;28;20452;-60
2022/07/01 02:25:02;;;;;;;26.30;23.80;;;20.50;99.90;;;;;;5074442;28;20489;-59
2022/07/01 02:27:29;;;;;;;25.83;23.33;;;20.40;99.90;;;;;;5074293;28;20542;-60
2022/07/01 02:29:56;;;;;;;27.03;24.47;;;20.30;99.90;;;;;;5074248;28;20897;-60
2022/07/01 02:32:23;;;;;;;26.80;24.10;;;20.20;99.90;;;;;;5074420;28;20450;-59
2022/07/01 02:34:51;;;;;;;25.63;23.47;;;20.30;99.90;;;;;;5074649;28;20883;-59
2022/07/01 02:37:17;;;;;;;26.67;24.23;;;20.40;99.90;;;;;;5074438;28;20444;-60
2022/07/01 02:39:44;;;;;;;27.47;25.00;;;20.40;99.90;;;;;;5074209;28;20483;-60
2022/07/01 02:42:26;;;;;;;26.57;24.13;;;20.40;99.90;;;;;;5074319;28;20462;-59
2022/07/01 02:44:53;;;;;;;27.80;25.10;;;20.40;99.90;;;;;;5073970;28;20538;-59
2022/07/01 02:47:21;;;;;;;26.47;24.17;;;20.40;99.90;;;;;;5074031;28;20444;-59
2022/07/01 02:49:47;;;;;;;27.47;24.77;;;20.50;99.90;;;;;;5073634;28;20884;-59
2022/07/01 02:52:15;;;;;;;30.70;27.17;;;20.40;99.90;;;;;;5073815;28;20534;-59
2022/07/01 02:54:41;;;;;;;28.63;25.93;;;20.40;99.90;;;;;;5073827;28;20509;-59
2022/07/01 02:57:08;;;;;;;27.10;24.70;;;20.30;99.90;;;;;;5073093;28;20481;-58
2022/07/01 02:59:35;;;;;;;30.30;27.30;;;20.40;99.90;;;;;;5073635;28;20529;-59
2022/07/01 03:02:01;;;;;;;27.60;25.17;;;20.40;99.90;;;;;;5073528;28;20448;-59
2022/07/01 03:04:29;;;;;;;28.17;25.40;;;20.50;99.90;;;;;;5073333;28;20541;-59
2022/07/01 03:06:56;;;;;;;29.60;26.70;;;20.50;99.90;;;;;;5073506;28;20543;-59
2022/07/01 03:09:23;;;;;;;28.63;25.93;;;20.40;99.90;;;;;;5073472;28;20826;-59
2022/07/01 03:11:49;;;;;;;27.50;24.90;;;20.50;99.90;;;;;;5073409;28;20473;-59
2022/07/01 03:14:16;;;;;;;30.37;25.30;;;20.60;99.90;;;;;;5073342;28;20454;-59
2022/07/01 03:16:42;;;;;;;27.60;24.87;;;20.80;99.90;;;;;;5073202;28;20455;-59
2022/07/01 03:19:09;;;;;;;28.43;25.63;;;20.70;99.90;;;;;;5073118;28;20947;-59
2022/07/01 03:21:37;;;;;;;28.13;25.30;;;20.60;99.90;;;;;;5073415;28;20543;-59
2022/07/01 03:24:03;;;;;;;25.10;23.00;;;20.70;99.90;;;;;;5073622;28;20505;-59
2022/07/01 03:26:30;;;;;;;25.13;22.97;;;20.90;99.90;;;;;;5073260;28;20447;-59
2022/07/01 03:28:56;;;;;;;25.70;23.30;;;21.10;99.90;;;;;;5073153;28;20787;-59
2022/07/01 03:31:23;;;;;;;26.80;24.27;;;21.30;99.90;;;;;;5073009;28;20447;-59
2022/07/01 03:33:49;;;;;;;25.20;22.90;;;21.40;99.90;;;;;;5073271;28;20540;-59
2022/07/01 03:36:16;;;;;;;28.50;25.87;;;21.40;99.90;;;;;;5073145;28;20534;-59
2022/07/01 03:38:44;;;;;;;25.77;22.87;;;21.40;99.90;;;;;;5073096;28;20450;-59
2022/07/01 03:41:11;;;;;;;29.23;26.40;;;21.50;99.90;;;;;;5073273;28;20993;-59
2022/07/01 03:43:37;;;;;;;25.80;23.50;;;21.60;99.90;;;;;;5073025;28;20479;-59
2022/07/01 03:46:04;;;;;;;28.87;26.17;;;21.60;99.90;;;;;;5072782;28;20525;-59
2022/07/01 03:48:30;;;;;;;28.13;25.40;;;21.50;99.90;;;;;;5072809;28;20938;-59
2022/07/01 03:50:57;;;;;;;29.30;26.60;;;21.40;99.90;;;;;;5073039;28;20803;-59
2022/07/01 03:56:08;;;;;;;29.47;26.63;;;21.20;99.90;;;;;;5072714;28;20534;-59
2022/07/01 03:58:35;;;;;;;29.80;26.87;;;21.00;99.90;;;;;;5072769;28;20454;-59
2022/07/01 04:01:01;;;;;;;27.23;24.70;;;20.90;99.90;;;;;;5072932;28;20483;-59
2022/07/01 04:03:28;;;;;;;26.93;24.47;;;21.00;99.90;;;;;;5072841;28;20444;-59
2022/07/01 04:05:54;;;;;;;27.37;24.57;;;21.20;99.90;;;;;;5072821;28;20559;-59
2022/07/01 04:08:21;;;;;;;30.30;27.47;;;21.30;99.90;;;;;;5072753;28;20542;-59
2022/07/01 04:10:49;;;;;;;31.03;28.07;;;21.20;99.90;;;;;;5076323;28;20541;-59
2022/07/01 04:13:17;;;;;;;31.30;28.43;;;21.10;99.90;;;;;;5076902;28;20463;-59
2022/07/01 04:15:43;;;;;;;32.27;29.03;;;21.00;99.90;;;;;;5076847;28;20818;-59
2022/07/01 04:18:10;;;;;;;31.67;28.47;;;20.90;99.90;;;;;;5076765;28;20541;-59
2022/07/01 04:20:36;;;;;;;29.63;26.70;;;20.90;99.90;;;;;;5076546;28;20489;-59
2022/07/01 04:23:02;;;;;;;29.97;26.57;;;21.00;99.90;;;;;;5076610;28;20443;-59
2022/07/01 04:25:29;;;;;;;30.03;26.83;;;21.00;99.90;;;;;;5076521;28;20550;-59
2022/07/01 04:27:56;;;;;;;30.27;27.23;;;21.10;99.90;;;;;;5076430;28;20547;-59
2022/07/01 04:30:24;;;;;;;30.17;27.13;;;21.10;99.90;;;;;;5076586;28;20802;-59
2022/07/01 04:32:51;;;;;;;29.03;26.23;;;21.10;99.90;;;;;;5076521;28;20546;-59
2022/07/01 04:35:17;;;;;;;29.57;26.83;;;21.30;99.90;;;;;;5076354;28;20450;-58
2022/07/01 04:37:44;;;;;;;29.67;26.93;;;21.40;99.90;;;;;;5076300;28;20534;-59
2022/07/01 04:40:10;;;;;;;28.80;26.20;;;21.40;99.90;;;;;;5076096;28;20483;-59
2022/07/01 04:42:36;;;;;;;30.10;27.30;;;21.40;99.90;;;;;;5076366;28;20774;-59
2022/07/01 04:45:02;;;;;;;29.17;26.37;;;21.40;99.90;;;;;;5076239;28;20538;-59
2022/07/01 04:47:32;;;;;;;29.27;26.40;;;21.30;99.90;;;;;;5076253;28;20230;-59
2022/07/01 04:50:01;;;;;;;29.20;26.27;;;21.30;99.90;;;;;;5076099;28;20447;-59
2022/07/01 04:52:27;;;;;;;28.43;25.80;;;21.40;99.90;;;;;;5075989;28;20448;-59
2022/07/01 04:54:54;;;;;;;28.47;25.87;;;21.50;99.90;;;;;;5075815;28;20447;-59
2022/07/01 04:57:20;;;;;;;29.20;26.33;;;21.60;99.90;;;;;;5075863;28;20489;-59
2022/07/01 04:59:47;;;;;;;26.57;23.77;;;21.70;99.90;;;;;;5075828;28;20490;-59
2022/07/01 05:02:13;;;;;;;28.63;25.27;;;21.90;99.90;;;;;;5075684;28;20542;-59
2022/07/01 05:04:41;;;;;;;29.33;26.37;;;22.00;99.90;;;;;;5075867;28;20537;-59
2022/07/01 05:07:27;;;;;;;27.37;24.60;;;22.10;99.90;;;;;;5075915;28;20468;-59
2022/07/01 05:09:54;;;;;;;27.73;25.23;;;22.20;99.90;;;;;;5075785;28;20836;-59
2022/07/01 05:12:21;;;;;;;29.93;26.67;;;22.20;99.90;;;;;;5075914;28;20470;-59
2022/07/01 05:14:47;;;;;;;27.10;24.70;;;22.30;99.90;;;;;;5075666;28;20563;-59
2022/07/01 05:17:14;;;;;;;25.77;23.37;;;22.40;99.90;;;;;;5075541;28;20450;-59
2022/07/01 05:22:26;;;;;;;26.13;23.77;;;22.50;99.90;;;;;;5075785;28;20580;-59
2022/07/01 05:24:53;;;;;;;25.13;22.93;;;22.60;99.90;;;;;;5075450;28;20455;-59
2022/07/01 05:27:19;;;;;;;25.20;22.90;;;22.90;99.90;;;;;;5075443;28;20455;-59
2022/07/01 05:29:46;;;;;;;26.00;23.53;;;23.00;99.90;;;;;;5075468;28;20546;-59
2022/07/01 05:32:12;;;;;;;22.87;20.77;;;23.30;99.90;;;;;;5075294;28;20785;-59
2022/07/01 05:34:40;;;;;;;25.30;22.80;;;23.40;99.90;;;;;;5075148;28;20444;-59
2022/07/01 05:37:08;;;;;;;27.33;24.47;;;23.20;99.90;;;;;;5075384;28;20926;-59
2022/07/01 05:39:34;;;;;;;24.00;21.80;;;23.30;99.90;;;;;;5075088;28;20554;-59
2022/07/01 05:42:01;;;;;;;24.87;22.47;;;23.40;99.90;;;;;;5075007;28;20490;-59
2022/07/01 05:44:27;;;;;;;22.57;20.67;;;23.60;99.90;;;;;;5075258;28;20447;-59
2022/07/01 05:46:54;;;;;;;22.10;20.30;;;23.60;99.90;;;;;;5074797;28;20453;-59
2022/07/01 05:49:20;;;;;;;23.83;21.30;;;23.70;99.90;;;;;;5074985;28;20551;-59
2022/07/01 05:51:47;;;;;;;23.40;21.13;;;23.90;99.90;;;;;;5074768;28;20939;-59
2022/07/01 05:54:15;;;;;;;23.30;21.20;;;24.10;99.90;;;;;;5074960;28;20887;-59
2022/07/01 05:56:41;;;;;;;22.30;20.20;;;24.40;99.90;;;;;;5074537;28;21001;-59
2022/07/01 05:59:08;;;;;;;23.77;21.57;;;24.40;99.90;;;;;;5074607;28;20459;-59
2022/07/01 06:01:35;;;;;;;20.43;18.60;;;24.50;99.90;;;;;;5074375;28;20570;-59
2022/07/01 06:04:01;;;;;;;21.73;19.93;;;24.60;99.90;;;;;;5074787;28;20447;-59
2022/07/01 06:06:28;;;;;;;21.13;19.20;;;24.90;99.90;;;;;;5074615;28;20447;-59
2022/07/01 06:08:55;;;;;;;20.60;19.00;;;24.90;99.90;;;;;;5074488;28;20453;-59
2022/07/01 06:11:23;;;;;;;22.40;18.37;;;25.20;99.90;;;;;;5074831;28;20860;-59
2022/07/01 06:13:49;;;;;;;20.17;18.47;;;25.40;99.90;;;;;;5074209;28;20451;-59
2022/07/01 06:16:16;;;;;;;20.83;18.90;;;25.40;99.90;;;;;;5074209;28;20443;-59
2022/07/01 06:18:42;;;;;;;20.27;18.20;;;25.60;99.90;;;;;;5074353;28;20806;-59
2022/07/01 06:21:09;;;;;;;18.57;17.17;;;25.70;99.90;;;;;;5074291;28;20478;-59
2022/07/01 06:23:35;;;;;;;18.83;17.10;;;25.90;99.90;;;;;;5074462;28;20450;-59
2022/07/01 06:26:02;;;;;;;17.93;16.40;;;26.20;99.90;;;;;;5074044;28;20455;-59
2022/07/01 06:28:30;;;;;;;18.47;16.97;;;26.60;99.90;;;;;;5073916;28;20458;-59
2022/07/01 06:30:58;;;;;;;16.77;15.47;;;26.60;99.90;;;;;;5073969;28;20882;-60
2022/07/01 06:33:25;;;;;;;17.27;15.63;;;26.70;99.90;;;;;;5073034;28;20448;-59
2022/07/01 06:35:51;;;;;;;16.73;15.23;;;26.90;99.90;;;;;;5073857;28;20447;-59
2022/07/01 06:38:18;;;;;;;16.10;14.77;;;27.00;99.90;;;;;;5073857;28;20480;-59
2022/07/01 06:41:26;;;;;;;16.90;15.47;;;27.00;99.90;;;;;;5073520;28;20479;-59
2022/07/01 06:43:32;;;;;;;16.87;15.57;;;27.10;99.90;;;;;;5073513;28;20706;-59
2022/07/01 06:45:59;;;;;;;17.63;16.27;;;27.10;99.90;;;;;;5073732;28;20443;-59
2022/07/01 06:48:25;;;;;;;16.63;15.23;;;27.20;99.90;;;;;;5073593;28;20448;-59
2022/07/01 06:50:52;;;;;;;16.90;15.40;;;27.20;99.90;;;;;;5073730;28;20846;-59
2022/07/01 06:53:19;;;;;;;16.27;14.97;;;27.40;99.90;;;;;;5073626;28;20814;-59
2022/07/01 06:55:45;;;;;;;16.77;15.40;;;27.50;99.90;;;;;;5073428;28;20455;-59
2022/07/01 06:58:12;;;;;;;18.23;16.73;;;27.50;99.90;;;;;;5073200;28;20558;-59
2022/07/01 07:00:39;;;;;;;18.37;16.90;;;27.50;99.90;;;;;;5073249;28;20573;-59
2022/07/01 07:03:06;;;;;;;18.73;16.10;;;27.50;99.90;;;;;;5073433;28;20814;-59
2022/07/01 07:05:33;;;;;;;17.77;16.37;;;27.60;99.90;;;;;;5073332;28;20447;-59
2022/07/01 07:07:59;;;;;;;17.50;15.80;;;27.70;99.90;;;;;;5073158;28;20535;-59
2022/07/01 07:10:26;;;;;;;17.27;15.77;;;27.70;99.90;;;;;;5073174;28;20964;-59
2022/07/01 07:12:53;;;;;;;17.63;16.20;;;27.90;99.90;;;;;;5073416;28;20835;-59
2022/07/01 07:15:19;;;;;;;18.97;17.20;;;28.10;99.90;;;;;;5073185;28;20486;-59
2022/07/01 07:17:47;;;;;;;18.53;16.73;;;28.20;99.90;;;;;;5072978;28;20509;-59
2022/07/01 07:20:14;;;;;;;18.60;17.00;;;28.20;99.90;;;;;;5073076;28;20471;-59
2022/07/01 07:22:40;;;;;;;18.20;16.80;;;28.40;99.90;;;;;;5072401;28;20540;-59
2022/07/01 07:25:07;;;;;;;18.53;17.00;;;28.40;99.90;;;;;;5071859;28;20504;-60
2022/07/01 07:27:34;;;;;;;17.73;16.33;;;28.50;99.90;;;;;;5065119;28;20486;-59
2022/07/01 07:30:00;;;;;;;18.17;16.67;;;28.60;99.90;;;;;;5069118;28;20457;-62
2022/07/01 07:32:27;;;;;;;18.70;17.10;;;28.50;99.90;;;;;;5071101;28;20818;-61
2022/07/01 07:34:54;;;;;;;21.97;18.20;;;28.40;99.90;;;;;;5053946;28;20815;-60
2022/07/01 07:37:22;;;;;;;17.23;15.83;;;28.50;99.90;;;;;;5052743;28;20449;-61
2022/07/01 07:39:48;;;;;;;18.17;16.30;;;28.40;99.90;;;;;;5057892;28;20455;-60
2022/07/01 07:42:15;;;;;;;18.57;16.80;;;28.50;99.90;;;;;;5052769;28;20490;-61
2022/07/01 07:44:41;;;;;;;19.23;17.80;;;28.60;99.90;;;;;;5062170;28;20923;-61
2022/07/01 07:47:08;;;;;;;17.70;16.13;;;28.80;99.90;;;;;;5072692;28;20539;-62
2022/07/01 07:49:34;;;;;;;18.93;17.33;;;28.90;99.90;;;;;;5072624;28;20545;-61
2022/07/01 07:52:02;;;;;;;16.70;15.30;;;28.60;99.90;;;;;;5069879;28;20447;-60
2022/07/01 07:54:29;;;;;;;18.90;17.20;;;28.60;99.90;;;;;;5072482;28;20999;-59
2022/07/01 07:56:55;;;;;;;16.90;15.50;;;28.80;99.90;;;;;;5066674;28;20480;-59
2022/07/01 07:59:22;;;;;;;17.20;15.80;;;29.10;99.90;;;;;;5052488;28;20451;-59
2022/07/01 08:01:48;;;;;;;18.50;15.60;;;29.20;99.90;;;;;;5052145;28;20484;-59
2022/07/01 08:04:15;;;;;;;18.43;16.50;;;29.30;99.90;;;;;;5062943;28;20458;-59
2022/07/01 08:06:41;;;;;;;18.10;16.50;;;29.10;99.90;;;;;;5072576;28;20451;-59
2022/07/01 08:09:09;;;;;;;18.33;16.73;;;29.10;99.90;;;;;;5071485;28;20447;-59
2022/07/01 08:11:36;;;;;;;19.43;17.53;;;29.00;99.90;;;;;;5072952;28;20454;-59
2022/07/01 08:14:02;;;;;;;19.77;18.03;;;28.90;99.90;;;;;;5072139;28;20453;-57
2022/07/01 08:16:29;;;;;;;22.20;16.67;;;28.70;99.90;;;;;;5071129;28;20456;-59
2022/07/01 08:18:55;;;;;;;17.60;16.20;;;28.80;99.90;;;;;;5070721;28;20526;-59
2022/07/01 08:21:22;;;;;;;19.70;17.53;;;29.10;99.90;;;;;;5071185;28;20510;-50
2022/07/01 08:23:48;;;;;;;19.33;17.67;;;29.00;99.90;;;;;;5070989;28;20954;-58
2022/07/01 08:26:17;;;;;;;17.43;16.03;;;28.90;99.90;;;;;;5061763;28;20543;-57
2022/07/01 08:28:44;;;;;;;19.63;17.77;;;28.70;99.90;;;;;;5072267;28;20451;-59
2022/07/01 08:31:11;;;;;;;17.87;16.30;;;28.70;99.90;;;;;;5063865;28;20483;-64
2022/07/01 08:33:38;;;;;;;19.57;17.90;;;28.80;99.90;;;;;;5074563;28;20444;-59
2022/07/01 08:36:05;;;;;;;19.40;17.53;;;29.00;99.90;;;;;;5068852;28;20478;-51
2022/07/01 08:38:32;;;;;;;18.27;16.43;;;29.20;99.90;;;;;;5056844;28;20464;-60
2022/07/01 08:40:58;;;;;;;18.57;16.77;;;29.40;99.90;;;;;;5052357;28;20503;-60
2022/07/01 08:43:26;;;;;;;17.57;15.97;;;29.60;99.90;;;;;;5065846;28;20455;-60
2022/07/01 08:45:53;;;;;;;18.80;16.90;;;29.40;99.90;;;;;;5071737;28;20535;-63
2022/07/01 08:48:20;;;;;;;16.53;15.23;;;29.40;99.90;;;;;;5054411;28;20475;-60
2022/07/01 08:50:47;;;;;;;17.37;15.80;;;29.80;99.90;;;;;;5052073;28;20538;-61
2022/07/01 08:53:14;;;;;;;18.53;15.43;;;30.10;99.90;;;;;;5064689;28;20969;-61
2022/07/01 08:58:22;;;;;;;20.23;14.70;;;30.10;99.90;;;;;;5075123;28;20436;-61
2022/07/01 09:00:50;;;;;;;17.33;15.37;;;30.10;99.90;;;;;;5073537;28;20571;-60
2022/07/01 09:03:20;;;;;;;17.07;15.10;;;29.70;99.90;;;;;;5075065;28;20451;-61
2022/07/01 09:05:52;;;;;;;15.20;13.97;;;29.50;99.90;;;;;;5074402;28;20460;-61
2022/07/01 09:08:19;;;;;;;15.60;14.30;;;29.70;99.90;;;;;;5075093;28;20451;-59
2022/07/01 09:10:46;;;;;;;15.80;14.50;;;29.70;99.90;;;;;;5069978;28;20533;-60
2022/07/01 09:13:14;;;;;;;14.90;13.63;;;29.70;99.90;;;;;;5072001;28;20557;-57
2022/07/01 09:15:42;;;;;;;15.43;13.87;;;29.80;99.90;;;;;;5075535;28;20452;-50
2022/07/01 09:18:13;;;;;;;15.03;13.77;;;29.80;99.90;;;;;;5075286;28;20964;-53
2022/07/01 09:20:42;;;;;;;12.77;11.70;;;29.80;99.90;;;;;;5088387;28;20941;-52
2022/07/01 09:23:11;;;;;;;12.87;11.97;;;29.80;99.90;;;;;;5071799;28;20456;-55
2022/07/01 09:25:43;;;;;;;14.10;12.80;;;29.70;99.90;;;;;;5072883;28;20447;-56
2022/07/01 09:28:12;;;;;;;12.70;11.50;;;29.50;99.90;;;;;;5075304;28;20493;-55
2022/07/01 09:30:40;;;;;;;12.47;11.47;;;29.50;99.90;;;;;;5074928;28;20519;-56
2022/07/01 09:33:08;;;;;;;13.30;12.27;;;29.40;99.90;;;;;;5075072;28;20805;-54
2022/07/01 09:35:36;;;;;;;12.00;11.10;;;29.30;99.90;;;;;;5075117;28;20447;-57
2022/07/01 09:38:03;;;;;;;11.67;10.77;;;29.30;99.90;;;;;;5075529;28;20443;-53
2022/07/01 09:40:54;;;;;;;12.67;11.70;;;29.30;99.90;;;;;;5075323;28;20436;-50
2022/07/01 09:43:23;;;;;;;11.90;11.00;;;29.10;99.90;;;;;;5075262;28;20538;-55
2022/07/01 09:45:55;;;;;;;13.07;11.47;;;29.00;99.90;;;;;;5075425;28;20447;-55
2022/07/01 09:48:22;;;;;;;9.27;8.60;;;28.80;99.90;;;;;;5057858;28;21049;-60
2022/07/01 09:50:50;;;;;;;4.33;3.93;;;28.50;99.90;;;;;;5074036;28;20451;-59
2022/07/01 09:53:17;;;;;;;3.93;3.53;;;27.90;99.90;;;;;;5073851;28;20450;-56
2022/07/01 09:55:44;;;;;;;6.47;3.33;;;27.30;99.90;;;;;;5072855;28;20451;-56
2022/07/01 09:58:10;;;;;;;6.23;3.30;;;26.80;99.90;;;;;;5072751;28;20480;-57
2022/07/01 10:00:38;;;;;;;3.63;2.77;;;26.40;99.90;;;;;;5073597;28;20946;-58
2022/07/01 10:03:06;;;;;;;3.00;2.20;;;26.10;99.90;;;;;;5073723;28;20452;-57
2022/07/01 10:05:39;;;;;;;3.43;3.13;;;26.00;99.90;;;;;;5074788;28;20801;-57
2022/07/01 10:08:19;;;;;;;3.40;2.37;;;26.10;99.90;;;;;;5074593;28;20452;-57
2022/07/01 10:10:51;;;;;;;2.10;2.00;;;26.00;99.90;;;;;;5074536;28;20878;-57
2022/07/01 10:13:22;;;;;;;2.40;2.20;;;25.70;99.90;;;;;;5074279;28;20444;-56
2022/07/01 10:15:49;;;;;;;1.93;1.70;;;25.60;99.90;;;;;;5074495;28;20436;-58
2022/07/01 10:18:22;;;;;;;2.30;1.57;;;25.60;99.90;;;;;;5074359;28;20450;-57
2022/07/01 10:20:49;;;;;;;1.67;1.57;;;25.70;99.90;;;;;;5074300;28;20894;-56
2022/07/01 10:23:20;;;;;;;1.40;1.30;;;25.50;99.90;;;;;;5074217;28;20453;-57
2022/07/01 10:25:48;;;;;;;1.60;1.50;;;25.20;99.90;;;;;;5074189;28;20794;-57
2022/07/01 10:28:23;;;;;;;2.10;1.60;;;25.20;99.90;;;;;;5073981;28;20454;-56
2022/07/01 10:30:55;;;;;;;1.73;1.50;;;25.10;99.90;;;;;;5074077;28;20934;-57
2022/07/01 10:33:38;;;;;;;2.50;1.37;;;25.10;99.90;;;;;;5074100;28;20449;-57
2022/07/01 10:36:07;;;;;;;1.30;1.20;;;25.30;99.90;;;;;;5074059;28;20473;-57
2022/07/01 10:38:35;;;;;;;5.90;1.50;;;25.30;99.90;;;;;;5073775;28;20458;-57
2022/07/01 10:41:10;;;;;;;1.30;1.20;;;25.50;99.90;;;;;;5074065;28;20538;-57
2022/07/01 10:43:40;;;;;;;1.20;1.10;;;25.50;99.90;;;;;;5073734;28;20949;-57
2022/07/01 10:46:06;;;;;;;1.20;1.10;;;25.50;99.90;;;;;;5073866;28;20849;-57
2022/07/01 10:48:34;;;;;;;2.07;1.10;;;25.30;99.90;;;;;;5073783;28;20447;-56
2022/07/01 10:51:01;;;;;;;1.87;1.30;;;24.90;99.90;;;;;;5073876;28;20443;-57
2022/07/01 10:53:47;;;;;;;1.73;1.10;;;24.80;99.90;;;;;;5073616;28;20538;-58
2022/07/01 10:56:17;;;;;;;1.50;1.40;;;24.70;99.90;;;;;;5073732;28;20471;-57
2022/07/01 10:58:44;;;;;;;1.20;1.10;;;24.60;99.90;;;;;;5073699;28;20450;-57
2022/07/01 11:01:11;;;;;;;1.10;1.00;;;24.50;99.90;;;;;;5073391;28;20486;-57
2022/07/01 11:03:39;;;;;;;1.37;1.27;;;24.50;99.90;;;;;;5073445;28;20810;-57
2022/07/01 11:06:07;;;;;;;1.87;1.60;;;24.30;99.90;;;;;;5073619;28;20456;-57
2022/07/01 11:08:34;;;;;;;1.40;1.30;;;24.10;99.90;;;;;;5073573;28;20772;-57
2022/07/01 11:11:05;;;;;;;1.63;1.40;;;24.00;99.90;;;;;;5073375;28;20479;-57
2022/07/01 11:13:32;;;;;;;1.00;0.97;;;23.90;99.90;;;;;;5073437;28;20454;-57
2022/07/01 11:16:00;;;;;;;1.37;1.00;;;23.60;99.90;;;;;;5073237;28;20475;-57
2022/07/01 11:18:27;;;;;;;1.27;1.17;;;23.50;99.90;;;;;;5073133;28;20450;-58
2022/07/01 11:21:02;;;;;;;1.07;0.83;;;23.50;99.90;;;;;;5073388;28;20443;-57
2022/07/01 11:23:29;;;;;;;2.40;0.80;;;23.40;99.90;;;;;;5073124;28;20557;-56
2022/07/01 11:25:55;;;;;;;0.77;0.60;;;23.30;99.90;;;;;;5073111;28;20475;-57
2022/07/01 11:28:23;;;;;;;0.80;0.70;;;23.20;99.90;;;;;;5073167;28;20537;-58
2022/07/01 11:30:58;;;;;;;0.73;0.73;;;23.10;99.90;;;;;;5073107;28;20465;-58
2022/07/01 11:33:24;;;;;;;1.33;0.70;;;23.20;99.90;;;;;;5073009;28;20829;-57
2022/07/01 11:41:21;;;;;;;1.30;0.80;;;23.20;99.90;;;;;;5072928;28;20934;-57
2022/07/01 11:43:51;;;;;;;0.80;0.73;;;23.00;99.90;;;;;;5073045;28;20930;-56
2022/07/01 11:46:18;;;;;;;1.23;0.90;;;23.20;99.90;;;;;;5072967;28;20558;-57
2022/07/01 11:48:47;;;;;;;0.90;0.70;;;23.10;99.90;;;;;;5072824;28;21025;-55
2022/07/01 11:51:15;;;;;;;0.87;0.70;;;23.00;99.90;;;;;;5072817;28;20448;-56
2022/07/01 11:53:44;;;;;;;1.73;0.90;;;23.10;99.90;;;;;;5072931;28;20444;-55
2022/07/01 11:56:11;;;;;;;1.33;0.70;;;23.10;99.90;;;;;;5072582;28;20447;-54
2022/07/01 11:58:45;;;;;;;1.27;0.70;;;23.00;99.90;;;;;;5072828;28;20454;-54
2022/07/01 12:01:24;;;;;;;3.00;0.83;;;22.90;99.90;;;;;;5072720;28;21029;-55
2022/07/01 12:03:50;;;;;;;0.70;0.60;;;22.80;99.90;;;;;;5072439;28;20482;-59
2022/07/01 12:06:19;;;;;;;0.60;0.50;;;22.80;99.90;;;;;;5072827;28;20447;-58
2022/07/01 12:08:46;;;;;;;0.70;0.50;;;22.90;99.90;;;;;;5072928;28;20487;-58
2022/07/01 12:11:13;;;;;;;1.33;0.80;;;23.30;99.90;;;;;;5072721;28;20541;-56
2022/07/01 12:13:40;;;;;;;0.70;0.60;;;23.70;99.90;;;;;;5072877;28;20946;-57
2022/07/01 12:16:08;;;;;;;0.80;0.70;;;23.90;99.90;;;;;;5072397;28;20478;-57
2022/07/01 12:18:36;;;;;;;0.80;0.60;;;24.00;99.90;;;;;;5072540;28;20455;-58
2022/07/01 12:21:03;;;;;;;2.10;0.97;;;24.20;99.90;;;;;;5072642;28;20451;-58
2022/07/01 12:23:30;;;;;;;2.17;0.80;;;24.30;99.90;;;;;;5072599;28;20482;-57
2022/07/01 12:25:56;;;;;;;0.90;0.73;;;24.40;99.90;;;;;;5072638;28;20449;-58
2022/07/01 12:28:31;;;;;;;0.87;0.80;;;24.10;99.90;;;;;;5072522;28;20450;-58
2022/07/01 12:31:06;;;;;;;0.87;0.87;;;24.00;99.90;;;;;;5074414;28;20881;-57
2022/07/01 12:33:33;;;;;;;0.80;0.73;;;23.90;99.90;;;;;;5076716;28;20454;-58
2022/07/01 12:36:02;;;;;;;1.00;0.90;;;23.90;99.90;;;;;;5076430;28;20442;-59
2022/07/01 12:38:29;;;;;;;1.67;0.90;;;23.80;99.90;;;;;;5076353;28;20443;-57
2022/07/01 12:40:56;;;;;;;2.50;1.27;;;23.80;99.90;;;;;;5076260;28;20806;-56
2022/07/01 12:43:24;;;;;;;1.60;1.50;;;23.80;99.90;;;;;;5075999;28;20478;-57
2022/07/01 12:45:50;;;;;;;1.67;1.57;;;23.70;99.90;;;;;;5075923;28;20453;-58